sensor_id;sensor_type;location;lat;lon;timestamp;pressure;altitude;pressure_sealevel;temperature;humidity
23016;BME280;11674;52.428;13.584;2023-07-20T00:00:41;100757.00;;;19.03;82.02
23016;BME280;11674;52.428;13.584;2023-07-20T00:05:48;100750.09;;;19.00;82.11
23016;BME280;11674;52.428;13.584;2023-07-20T00:10:55;100760.88;;;18.98;82.28
23016;BME280;11674;52.428;13.584;2023-07-20T00:16:02;100759.91;;;18.94;82.40
23016;BME280;11674;52.428;13.584;2023-07-20T00:21:09;100756.03;;;18.87;82.47
23016;BME280;11674;52.428;13.584;2023-07-20T00:26:16;100767.97;;;18.84;82.40
23016;BME280;11674;52.428;13.584;2023-07-20T00:31:23;100750.41;;;18.87;82.58
23016;BME280;11674;52.428;13.584;2023-07-20T00:36:30;100765.41;;;18.91;82.56
23016;BME280;11674;52.428;13.584;2023-07-20T00:41:38;100758.16;;;18.90;82.55
23016;BME280;11674;52.428;13.584;2023-07-20T00:46:45;100756.03;;;18.87;82.71
23016;BME280;11674;52.428;13.584;2023-07-20T00:51:52;100756.84;;;18.87;82.22
23016;BME280;11674;52.428;13.584;2023-07-20T00:57:00;100760.13;;;18.89;82.19
23016;BME280;11674;52.428;13.584;2023-07-20T01:02:08;100764.22;;;18.80;81.92
23016;BME280;11674;52.428;13.584;2023-07-20T01:07:34;100763.66;;;18.66;82.65
23016;BME280;11674;52.428;13.584;2023-07-20T01:12:43;100761.22;;;18.64;82.19
23016;BME280;11674;52.428;13.584;2023-07-20T01:17:52;100764.25;;;18.59;82.08
23016;BME280;11674;52.428;13.584;2023-07-20T01:29:11;100770.94;;;18.46;82.91
23016;BME280;11674;52.428;13.584;2023-07-20T01:34:24;100771.66;;;18.43;82.36
23016;BME280;11674;52.428;13.584;2023-07-20T01:39:32;100773.81;;;18.38;82.71
23016;BME280;11674;52.428;13.584;2023-07-20T01:44:39;100775.59;;;18.42;82.72
23016;BME280;11674;52.428;13.584;2023-07-20T01:49:46;100770.34;;;18.41;82.38
23016;BME280;11674;52.428;13.584;2023-07-20T01:54:53;100770.22;;;18.37;82.73
23016;BME280;11674;52.428;13.584;2023-07-20T02:00:00;100767.75;;;18.36;83.02
23016;BME280;11674;52.428;13.584;2023-07-20T02:05:14;100775.13;;;18.40;82.93
23016;BME280;11674;52.428;13.584;2023-07-20T02:10:22;100774.31;;;18.40;82.97
23016;BME280;11674;52.428;13.584;2023-07-20T02:15:29;100769.19;;;18.42;82.65
23016;BME280;11674;52.428;13.584;2023-07-20T02:20:36;100764.72;;;18.41;82.64
23016;BME280;11674;52.428;13.584;2023-07-20T02:25:43;100762.78;;;18.33;82.64
23016;BME280;11674;52.428;13.584;2023-07-20T02:30:50;100767.78;;;18.27;82.88
23016;BME280;11674;52.428;13.584;2023-07-20T02:35:57;100765.16;;;18.22;82.93
23016;BME280;11674;52.428;13.584;2023-07-20T02:41:04;100766.88;;;18.15;82.60
23016;BME280;11674;52.428;13.584;2023-07-20T02:46:11;100758.97;;;18.08;82.66
23016;BME280;11674;52.428;13.584;2023-07-20T02:51:18;100766.94;;;18.06;82.88
23016;BME280;11674;52.428;13.584;2023-07-20T02:56:25;100780.63;;;18.08;83.05
23016;BME280;11674;52.428;13.584;2023-07-20T03:01:32;100779.94;;;18.11;82.74
23016;BME280;11674;52.428;13.584;2023-07-20T03:06:39;100793.13;;;18.19;82.93
23016;BME280;11674;52.428;13.584;2023-07-20T03:11:46;100804.63;;;18.26;83.19
23016;BME280;11674;52.428;13.584;2023-07-20T03:16:53;100797.97;;;18.30;83.13
23016;BME280;11674;52.428;13.584;2023-07-20T03:22:05;100809.06;;;18.27;83.35
23016;BME280;11674;52.428;13.584;2023-07-20T03:27:12;100804.28;;;18.27;83.09
23016;BME280;11674;52.428;13.584;2023-07-20T03:32:19;100807.09;;;18.27;83.09
23016;BME280;11674;52.428;13.584;2023-07-20T03:37:26;100810.72;;;18.28;82.91
23016;BME280;11674;52.428;13.584;2023-07-20T03:42:33;100808.25;;;18.26;83.29
23016;BME280;11674;52.428;13.584;2023-07-20T03:47:40;100808.41;;;18.30;83.25
23016;BME280;11674;52.428;13.584;2023-07-20T03:52:48;100811.22;;;18.30;82.67
23016;BME280;11674;52.428;13.584;2023-07-20T03:57:55;100816.53;;;18.23;82.78
23016;BME280;11674;52.428;13.584;2023-07-20T04:03:02;100818.34;;;18.27;82.92
23016;BME280;11674;52.428;13.584;2023-07-20T04:08:09;100805.59;;;18.30;82.96
23016;BME280;11674;52.428;13.584;2023-07-20T04:13:16;100822.75;;;18.37;82.90
23016;BME280;11674;52.428;13.584;2023-07-20T04:18:23;100827.16;;;18.46;83.05
23016;BME280;11674;52.428;13.584;2023-07-20T04:23:30;100826.47;;;18.49;82.75
23016;BME280;11674;52.428;13.584;2023-07-20T04:28:38;100821.53;;;18.46;83.08
23016;BME280;11674;52.428;13.584;2023-07-20T04:33:52;100821.19;;;18.48;82.92
23016;BME280;11674;52.428;13.584;2023-07-20T04:38:59;100824.97;;;18.52;83.01
23016;BME280;11674;52.428;13.584;2023-07-20T04:44:11;100825.09;;;18.55;82.71
23016;BME280;11674;52.428;13.584;2023-07-20T04:49:18;100830.59;;;18.52;82.73
23016;BME280;11674;52.428;13.584;2023-07-20T04:54:25;100843.34;;;18.49;82.73
23016;BME280;11674;52.428;13.584;2023-07-20T04:59:32;100839.09;;;18.43;82.57
23016;BME280;11674;52.428;13.584;2023-07-20T05:04:46;100839.75;;;18.40;82.48
23016;BME280;11674;52.428;13.584;2023-07-20T05:09:53;100835.38;;;18.51;82.74
23016;BME280;11674;52.428;13.584;2023-07-20T05:15:00;100827.72;;;18.60;82.84
23016;BME280;11674;52.428;13.584;2023-07-20T05:20:08;100842.09;;;18.79;82.94
23016;BME280;11674;52.428;13.584;2023-07-20T05:25:15;100842.63;;;18.93;82.73
23016;BME280;11674;52.428;13.584;2023-07-20T05:30:22;100849.22;;;18.97;82.78
23016;BME280;11674;52.428;13.584;2023-07-20T05:35:29;100853.25;;;19.08;82.47
23016;BME280;11674;52.428;13.584;2023-07-20T05:40:40;100843.88;;;19.04;82.77
23016;BME280;11674;52.428;13.584;2023-07-20T05:45:48;100851.25;;;19.09;82.82
23016;BME280;11674;52.428;13.584;2023-07-20T05:50:55;100847.84;;;19.24;82.65
23016;BME280;11674;52.428;13.584;2023-07-20T05:56:02;100847.94;;;19.48;83.10
23016;BME280;11674;52.428;13.584;2023-07-20T06:01:09;100852.41;;;19.73;82.77
23016;BME280;11674;52.428;13.584;2023-07-20T06:06:20;100848.59;;;19.89;82.16
23016;BME280;11674;52.428;13.584;2023-07-20T06:11:27;100855.97;;;19.82;82.00
23016;BME280;11674;52.428;13.584;2023-07-20T06:16:34;100867.72;;;19.84;81.23
23016;BME280;11674;52.428;13.584;2023-07-20T06:21:41;100868.72;;;19.67;81.20
23016;BME280;11674;52.428;13.584;2023-07-20T06:26:48;100872.06;;;19.81;81.36
23016;BME280;11674;52.428;13.584;2023-07-20T06:31:55;100882.16;;;19.94;80.84
23016;BME280;11674;52.428;13.584;2023-07-20T06:37:03;100873.59;;;19.91;80.34
23016;BME280;11674;52.428;13.584;2023-07-20T06:42:10;100866.88;;;19.83;79.99
23016;BME280;11674;52.428;13.584;2023-07-20T06:47:17;100878.94;;;19.72;79.89
23016;BME280;11674;52.428;13.584;2023-07-20T06:52:24;100885.28;;;19.69;79.42
23016;BME280;11674;52.428;13.584;2023-07-20T06:57:31;100893.50;;;19.74;79.55
23016;BME280;11674;52.428;13.584;2023-07-20T07:02:38;100906.88;;;19.77;79.86
23016;BME280;11674;52.428;13.584;2023-07-20T07:07:45;100899.47;;;19.72;79.47
23016;BME280;11674;52.428;13.584;2023-07-20T07:12:52;100905.34;;;19.79;78.98
23016;BME280;11674;52.428;13.584;2023-07-20T07:17:59;100884.88;;;20.03;78.72
23016;BME280;11674;52.428;13.584;2023-07-20T07:23:06;100895.72;;;20.13;78.29
23016;BME280;11674;52.428;13.584;2023-07-20T07:28:13;100897.00;;;20.15;77.87
23016;BME280;11674;52.428;13.584;2023-07-20T07:33:20;100907.22;;;20.20;78.11
23016;BME280;11674;52.428;13.584;2023-07-20T07:38:27;100906.03;;;20.21;77.14
23016;BME280;11674;52.428;13.584;2023-07-20T07:43:34;100905.09;;;20.29;76.63
23016;BME280;11674;52.428;13.584;2023-07-20T07:48:42;100892.97;;;20.64;76.70
23016;BME280;11674;52.428;13.584;2023-07-20T07:53:49;100898.84;;;20.95;76.54
23016;BME280;11674;52.428;13.584;2023-07-20T07:58:56;100891.63;;;21.10;76.24
23016;BME280;11674;52.428;13.584;2023-07-20T08:04:03;100898.09;;;21.10;74.86
23016;BME280;11674;52.428;13.584;2023-07-20T08:09:10;100892.81;;;21.09;75.35
23016;BME280;11674;52.428;13.584;2023-07-20T08:14:17;100895.03;;;21.15;74.75
23016;BME280;11674;52.428;13.584;2023-07-20T08:19:24;100894.66;;;21.44;74.77
23016;BME280;11674;52.428;13.584;2023-07-20T08:24:31;100910.72;;;21.83;74.99
23016;BME280;11674;52.428;13.584;2023-07-20T08:29:38;100900.78;;;21.74;73.39
23016;BME280;11674;52.428;13.584;2023-07-20T08:34:45;100911.28;;;21.73;72.94
23016;BME280;11674;52.428;13.584;2023-07-20T08:39:52;100917.72;;;21.74;72.22
23016;BME280;11674;52.428;13.584;2023-07-20T08:44:59;100921.66;;;21.85;71.79
23016;BME280;11674;52.428;13.584;2023-07-20T08:50:07;100924.88;;;21.99;71.42
23016;BME280;11674;52.428;13.584;2023-07-20T08:55:14;100918.91;;;21.88;70.13
23016;BME280;11674;52.428;13.584;2023-07-20T09:00:22;100910.84;;;22.02;69.06
23016;BME280;11674;52.428;13.584;2023-07-20T09:05:29;100923.25;;;22.29;69.21
23016;BME280;11674;52.428;13.584;2023-07-20T09:10:36;100930.44;;;22.26;67.70
23016;BME280;11674;52.428;13.584;2023-07-20T09:15:47;100921.06;;;22.22;67.13
23016;BME280;11674;52.428;13.584;2023-07-20T09:21:04;100936.38;;;22.06;67.81
23016;BME280;11674;52.428;13.584;2023-07-20T09:26:14;100916.75;;;21.82;66.67
23016;BME280;11674;52.428;13.584;2023-07-20T09:31:22;100920.59;;;22.05;66.93
23016;BME280;11674;52.428;13.584;2023-07-20T09:36:29;100926.44;;;22.12;65.66
23016;BME280;11674;52.428;13.584;2023-07-20T09:41:40;100920.97;;;22.19;64.12
23016;BME280;11674;52.428;13.584;2023-07-20T09:46:48;100923.34;;;22.32;65.60
23016;BME280;11674;52.428;13.584;2023-07-20T09:51:57;100920.91;;;22.62;64.94
23016;BME280;11674;52.428;13.584;2023-07-20T09:57:09;100926.19;;;22.98;65.13
23016;BME280;11674;52.428;13.584;2023-07-20T10:02:21;100919.00;;;22.85;64.22
23016;BME280;11674;52.428;13.584;2023-07-20T10:07:30;100920.16;;;22.99;65.32
23016;BME280;11674;52.428;13.584;2023-07-20T10:12:39;100916.00;;;23.12;64.73
23016;BME280;11674;52.428;13.584;2023-07-20T10:23:04;100913.47;;;23.07;63.19
23016;BME280;11674;52.428;13.584;2023-07-20T10:28:11;100912.44;;;22.81;63.18
23016;BME280;11674;52.428;13.584;2023-07-20T10:33:18;100919.81;;;22.51;63.45
23016;BME280;11674;52.428;13.584;2023-07-20T10:38:39;100920.44;;;22.44;63.13
23016;BME280;11674;52.428;13.584;2023-07-20T10:43:47;100920.13;;;22.65;63.79
23016;BME280;11674;52.428;13.584;2023-07-20T10:49:02;100921.75;;;22.81;63.27
23016;BME280;11674;52.428;13.584;2023-07-20T10:59:37;100928.84;;;22.91;62.19
23016;BME280;11674;52.428;13.584;2023-07-20T11:04:46;100921.19;;;23.26;62.19
23016;BME280;11674;52.428;13.584;2023-07-20T11:10:12;100928.94;;;23.29;62.51
23016;BME280;11674;52.428;13.584;2023-07-20T11:15:19;100932.38;;;23.03;62.33
23016;BME280;11674;52.428;13.584;2023-07-20T11:20:26;100931.94;;;23.01;62.70
23016;BME280;11674;52.428;13.584;2023-07-20T11:25:40;100942.50;;;23.04;62.21
23016;BME280;11674;52.428;13.584;2023-07-20T11:30:52;100939.97;;;22.99;62.08
23016;BME280;11674;52.428;13.584;2023-07-20T11:35:59;100941.03;;;23.10;61.88
23016;BME280;11674;52.428;13.584;2023-07-20T11:41:06;100933.56;;;23.18;62.38
23016;BME280;11674;52.428;13.584;2023-07-20T11:46:13;100937.88;;;23.50;61.91
23016;BME280;11674;52.428;13.584;2023-07-20T11:51:20;100946.59;;;23.41;61.57
23016;BME280;11674;52.428;13.584;2023-07-20T11:56:27;100945.41;;;23.23;61.98
23016;BME280;11674;52.428;13.584;2023-07-20T12:01:34;100933.22;;;23.04;61.93
23016;BME280;11674;52.428;13.584;2023-07-20T12:06:41;100934.38;;;23.03;62.58
23016;BME280;11674;52.428;13.584;2023-07-20T12:11:49;100945.41;;;23.08;62.13
23016;BME280;11674;52.428;13.584;2023-07-20T12:16:56;100939.25;;;23.02;62.02
23016;BME280;11674;52.428;13.584;2023-07-20T12:22:03;100937.28;;;23.41;61.53
23016;BME280;11674;52.428;13.584;2023-07-20T12:27:13;100943.94;;;23.67;59.94
23016;BME280;11674;52.428;13.584;2023-07-20T12:32:36;100929.09;;;23.74;60.26
23016;BME280;11674;52.428;13.584;2023-07-20T12:37:43;100930.63;;;23.90;60.08
23016;BME280;11674;52.428;13.584;2023-07-20T12:42:50;100941.44;;;23.85;59.69
23016;BME280;11674;52.428;13.584;2023-07-20T12:47:57;100930.66;;;23.52;58.99
23016;BME280;11674;52.428;13.584;2023-07-20T12:53:04;100942.66;;;23.11;59.17
23016;BME280;11674;52.428;13.584;2023-07-20T12:58:11;100939.81;;;22.77;59.40
23016;BME280;11674;52.428;13.584;2023-07-20T13:03:18;100940.69;;;22.62;59.84
23016;BME280;11674;52.428;13.584;2023-07-20T13:08:25;100940.41;;;22.51;60.70
23016;BME280;11674;52.428;13.584;2023-07-20T13:13:32;100934.44;;;22.87;61.30
23016;BME280;11674;52.428;13.584;2023-07-20T13:18:39;100942.28;;;23.47;60.60
23016;BME280;11674;52.428;13.584;2023-07-20T13:23:53;100932.44;;;23.98;59.29
23016;BME280;11674;52.428;13.584;2023-07-20T13:29:00;100920.31;;;24.46;57.72
23016;BME280;11674;52.428;13.584;2023-07-20T13:34:07;100913.00;;;24.94;57.14
23016;BME280;11674;52.428;13.584;2023-07-20T13:39:14;100908.28;;;25.31;55.78
23016;BME280;11674;52.428;13.584;2023-07-20T13:44:21;100909.88;;;25.61;54.81
23016;BME280;11674;52.428;13.584;2023-07-20T13:49:28;100898.13;;;25.63;55.59
23016;BME280;11674;52.428;13.584;2023-07-20T13:54:35;100904.16;;;25.58;55.76
23016;BME280;11674;52.428;13.584;2023-07-20T13:59:43;100880.88;;;25.49;51.60
23016;BME280;11674;52.428;13.584;2023-07-20T14:04:50;100885.44;;;25.53;51.42
23016;BME280;11674;52.428;13.584;2023-07-20T14:09:57;100877.50;;;25.69;50.68
23016;BME280;11674;52.428;13.584;2023-07-20T14:15:05;100879.78;;;25.93;51.96
23016;BME280;11674;52.428;13.584;2023-07-20T14:20:12;100886.41;;;25.68;51.68
23016;BME280;11674;52.428;13.584;2023-07-20T14:25:19;100870.75;;;25.51;51.46
23016;BME280;11674;52.428;13.584;2023-07-20T14:30:26;100872.56;;;25.66;52.14
23016;BME280;11674;52.428;13.584;2023-07-20T14:35:34;100866.25;;;25.83;50.81
23016;BME280;11674;52.428;13.584;2023-07-20T14:40:40;100861.56;;;25.98;49.49
23016;BME280;11674;52.428;13.584;2023-07-20T14:45:47;100878.72;;;26.08;50.03
23016;BME280;11674;52.428;13.584;2023-07-20T14:50:54;100862.72;;;26.37;49.68
23016;BME280;11674;52.428;13.584;2023-07-20T14:56:01;100862.09;;;26.57;48.68
23016;BME280;11674;52.428;13.584;2023-07-20T15:01:08;100860.75;;;26.44;48.48
23016;BME280;11674;52.428;13.584;2023-07-20T15:06:15;100843.47;;;26.20;48.82
23016;BME280;11674;52.428;13.584;2023-07-20T15:11:22;100852.44;;;26.22;49.78
23016;BME280;11674;52.428;13.584;2023-07-20T15:16:29;100855.03;;;26.41;51.05
23016;BME280;11674;52.428;13.584;2023-07-20T15:21:36;100850.03;;;26.24;49.42
23016;BME280;11674;52.428;13.584;2023-07-20T15:26:43;100855.16;;;26.08;49.03
23016;BME280;11674;52.428;13.584;2023-07-20T15:31:50;100859.91;;;26.44;48.79
23016;BME280;11674;52.428;13.584;2023-07-20T15:36:57;100852.06;;;26.81;49.71
23016;BME280;11674;52.428;13.584;2023-07-20T15:42:05;100855.88;;;27.02;48.17
23016;BME280;11674;52.428;13.584;2023-07-20T15:47:12;100856.41;;;26.61;48.05
23016;BME280;11674;52.428;13.584;2023-07-20T15:52:19;100837.69;;;26.56;48.54
23016;BME280;11674;52.428;13.584;2023-07-20T15:57:26;100854.50;;;26.25;48.80
23016;BME280;11674;52.428;13.584;2023-07-20T16:02:33;100845.25;;;25.55;46.43
23016;BME280;11674;52.428;13.584;2023-07-20T16:07:41;100856.81;;;25.10;45.83
23016;BME280;11674;52.428;13.584;2023-07-20T16:12:48;100860.97;;;24.86;45.60
23016;BME280;11674;52.428;13.584;2023-07-20T16:17:55;100853.91;;;25.03;45.08
23016;BME280;11674;52.428;13.584;2023-07-20T16:23:02;100863.84;;;25.19;45.61
23016;BME280;11674;52.428;13.584;2023-07-20T16:28:09;100853.53;;;25.34;43.67
23016;BME280;11674;52.428;13.584;2023-07-20T16:33:16;100856.56;;;25.22;42.42
23016;BME280;11674;52.428;13.584;2023-07-20T16:38:23;100861.25;;;25.07;42.82
23016;BME280;11674;52.428;13.584;2023-07-20T16:43:37;100856.53;;;24.89;43.03
23016;BME280;11674;52.428;13.584;2023-07-20T16:48:43;100862.44;;;24.77;43.74
23016;BME280;11674;52.428;13.584;2023-07-20T16:53:50;100867.81;;;24.82;43.76
23016;BME280;11674;52.428;13.584;2023-07-20T16:58:57;100851.66;;;24.60;43.58
23016;BME280;11674;52.428;13.584;2023-07-20T17:04:04;100867.22;;;24.47;44.28
23016;BME280;11674;52.428;13.584;2023-07-20T17:09:11;100863.41;;;24.36;44.64
23016;BME280;11674;52.428;13.584;2023-07-20T17:14:18;100868.53;;;24.27;44.28
23016;BME280;11674;52.428;13.584;2023-07-20T17:19:25;100875.84;;;24.28;44.24
23016;BME280;11674;52.428;13.584;2023-07-20T17:24:32;100872.03;;;24.43;43.86
23016;BME280;11674;52.428;13.584;2023-07-20T17:29:39;100877.84;;;24.27;43.73
23016;BME280;11674;52.428;13.584;2023-07-20T17:34:47;100883.78;;;24.19;43.99
23016;BME280;11674;52.428;13.584;2023-07-20T17:39:54;100882.34;;;24.06;43.51
23016;BME280;11674;52.428;13.584;2023-07-20T17:45:01;100884.34;;;24.05;43.88
23016;BME280;11674;52.428;13.584;2023-07-20T17:50:09;100886.63;;;24.19;43.71
23016;BME280;11674;52.428;13.584;2023-07-20T17:55:16;100880.00;;;24.11;43.82
23016;BME280;11674;52.428;13.584;2023-07-20T18:00:23;100897.22;;;23.80;43.93
23016;BME280;11674;52.428;13.584;2023-07-20T18:05:30;100896.88;;;23.63;44.50
23016;BME280;11674;52.428;13.584;2023-07-20T18:10:37;100894.59;;;23.30;44.25
23016;BME280;11674;52.428;13.584;2023-07-20T18:15:44;100906.06;;;23.03;44.70
23016;BME280;11674;52.428;13.584;2023-07-20T18:20:51;100897.50;;;22.80;44.72
23016;BME280;11674;52.428;13.584;2023-07-20T18:25:58;100902.66;;;22.59;45.01
23016;BME280;11674;52.428;13.584;2023-07-20T18:31:05;100901.81;;;22.43;45.03
23016;BME280;11674;52.428;13.584;2023-07-20T18:36:12;100902.72;;;22.32;45.10
23016;BME280;11674;52.428;13.584;2023-07-20T18:41:19;100908.94;;;22.22;45.05
23016;BME280;11674;52.428;13.584;2023-07-20T18:46:26;100920.06;;;22.15;45.63
23016;BME280;11674;52.428;13.584;2023-07-20T18:51:33;100922.16;;;22.02;45.66
23016;BME280;11674;52.428;13.584;2023-07-20T18:56:40;100921.41;;;21.90;45.78
23016;BME280;11674;52.428;13.584;2023-07-20T19:01:47;100931.22;;;21.80;45.71
23016;BME280;11674;52.428;13.584;2023-07-20T19:06:54;100931.41;;;21.72;46.27
23016;BME280;11674;52.428;13.584;2023-07-20T19:12:01;100925.50;;;21.65;46.16
23016;BME280;11674;52.428;13.584;2023-07-20T19:17:08;100932.13;;;21.57;46.34
23016;BME280;11674;52.428;13.584;2023-07-20T19:22:15;100938.28;;;21.47;46.91
23016;BME280;11674;52.428;13.584;2023-07-20T19:27:22;100943.75;;;21.40;46.68
23016;BME280;11674;52.428;13.584;2023-07-20T19:32:29;100948.34;;;21.32;47.20
23016;BME280;11674;52.428;13.584;2023-07-20T19:37:43;100949.69;;;21.23;47.13
23016;BME280;11674;52.428;13.584;2023-07-20T19:42:50;100963.91;;;21.14;47.67
23016;BME280;11674;52.428;13.584;2023-07-20T19:47:59;100969.25;;;21.04;47.67
23016;BME280;11674;52.428;13.584;2023-07-20T19:53:06;100962.91;;;20.95;48.03
23016;BME280;11674;52.428;13.584;2023-07-20T19:58:13;100964.19;;;20.85;47.94
23016;BME280;11674;52.428;13.584;2023-07-20T20:03:20;100964.31;;;20.77;48.52
23016;BME280;11674;52.428;13.584;2023-07-20T20:08:27;100965.00;;;20.74;48.26
23016;BME280;11674;52.428;13.584;2023-07-20T20:13:34;100965.94;;;20.78;48.78
23016;BME280;11674;52.428;13.584;2023-07-20T20:18:41;100972.31;;;20.75;48.78
23016;BME280;11674;52.428;13.584;2023-07-20T20:23:51;100973.25;;;20.67;49.13
23016;BME280;11674;52.428;13.584;2023-07-20T20:28:58;100977.47;;;20.61;49.37
23016;BME280;11674;52.428;13.584;2023-07-20T20:34:05;100984.19;;;20.56;49.28
23016;BME280;11674;52.428;13.584;2023-07-20T20:39:12;100982.16;;;20.57;49.30
23016;BME280;11674;52.428;13.584;2023-07-20T20:44:26;100987.22;;;20.63;49.68
23016;BME280;11674;52.428;13.584;2023-07-20T20:49:33;100991.22;;;20.62;49.28
23016;BME280;11674;52.428;13.584;2023-07-20T20:54:41;100983.56;;;20.63;49.30
23016;BME280;11674;52.428;13.584;2023-07-20T20:59:47;100988.28;;;20.59;49.70
23016;BME280;11674;52.428;13.584;2023-07-20T21:04:54;100973.13;;;20.51;49.67
23016;BME280;11674;52.428;13.584;2023-07-20T21:10:01;100979.22;;;20.41;49.76
23016;BME280;11674;52.428;13.584;2023-07-20T21:15:08;100983.78;;;20.34;49.91
23016;BME280;11674;52.428;13.584;2023-07-20T21:20:15;100982.38;;;20.28;49.90
23016;BME280;11674;52.428;13.584;2023-07-20T21:25:22;100966.25;;;20.16;50.39
23016;BME280;11674;52.428;13.584;2023-07-20T21:30:29;100979.63;;;20.07;50.50
23016;BME280;11674;52.428;13.584;2023-07-20T21:35:36;100982.50;;;19.99;50.80
23016;BME280;11674;52.428;13.584;2023-07-20T21:40:43;100988.22;;;19.90;50.81
23016;BME280;11674;52.428;13.584;2023-07-20T21:45:50;100993.28;;;19.85;50.71
23016;BME280;11674;52.428;13.584;2023-07-20T21:50:57;100994.50;;;19.75;51.22
23016;BME280;11674;52.428;13.584;2023-07-20T21:56:04;101000.72;;;19.69;51.15
23016;BME280;11674;52.428;13.584;2023-07-20T22:01:11;101004.22;;;19.66;51.45
23016;BME280;11674;52.428;13.584;2023-07-20T22:06:18;101000.81;;;19.60;51.83
23016;BME280;11674;52.428;13.584;2023-07-20T22:11:25;101008.81;;;19.50;51.91
23016;BME280;11674;52.428;13.584;2023-07-20T22:16:33;101011.38;;;19.43;52.04
23016;BME280;11674;52.428;13.584;2023-07-20T22:21:39;101013.44;;;19.34;52.48
23016;BME280;11674;52.428;13.584;2023-07-20T22:26:46;101007.03;;;19.25;52.63
23016;BME280;11674;52.428;13.584;2023-07-20T22:31:53;101002.47;;;19.12;52.93
23016;BME280;11674;52.428;13.584;2023-07-20T22:37:02;101004.03;;;19.01;53.44
23016;BME280;11674;52.428;13.584;2023-07-20T22:42:09;101007.25;;;18.91;53.55
23016;BME280;11674;52.428;13.584;2023-07-20T22:47:16;101003.66;;;18.82;53.96
23016;BME280;11674;52.428;13.584;2023-07-20T22:52:23;101005.19;;;18.71;53.87
23016;BME280;11674;52.428;13.584;2023-07-20T22:57:30;101000.31;;;18.59;54.16
23016;BME280;11674;52.428;13.584;2023-07-20T23:02:37;101005.47;;;18.49;54.33
23016;BME280;11674;52.428;13.584;2023-07-20T23:07:44;100996.06;;;18.45;54.87
23016;BME280;11674;52.428;13.584;2023-07-20T23:12:51;100994.41;;;18.44;54.92
23016;BME280;11674;52.428;13.584;2023-07-20T23:17:58;100995.13;;;18.41;55.37
23016;BME280;11674;52.428;13.584;2023-07-20T23:23:05;101000.59;;;18.37;55.92
23016;BME280;11674;52.428;13.584;2023-07-20T23:28:12;100993.81;;;18.30;55.75
23016;BME280;11674;52.428;13.584;2023-07-20T23:33:20;100999.59;;;18.25;56.05
23016;BME280;11674;52.428;13.584;2023-07-20T23:38:26;100992.00;;;18.17;56.69
23016;BME280;11674;52.428;13.584;2023-07-20T23:43:35;100992.88;;;18.09;56.79
23016;BME280;11674;52.428;13.584;2023-07-20T23:48:41;100996.53;;;18.01;57.03
23016;BME280;11674;52.428;13.584;2023-07-20T23:53:48;100993.41;;;17.94;57.19
23016;BME280;11674;52.428;13.584;2023-07-20T23:58:55;100985.00;;;17.85;57.27
